createdAt,value
2022-10-30T00:00:52.939Z,48.40
2022-10-30T00:03:23.193Z,38.60
2022-10-30T00:05:54.461Z,27.30
2022-10-30T00:08:26.999Z,27.20
2022-10-30T00:11:00.327Z,29.90
2022-10-30T00:13:33.420Z,30.40
2022-10-30T00:16:08.031Z,24.70
2022-10-30T00:18:39.097Z,26.20
2022-10-30T00:21:11.629Z,13.80
2022-10-30T00:23:49.911Z,9.40
2022-10-30T00:26:20.971Z,1.00
2022-10-30T00:28:56.235Z,1.00
2022-10-30T00:31:31.296Z,1.00
2022-10-30T00:34:03.387Z,1.00
2022-10-30T00:36:34.293Z,1.00
2022-10-30T00:39:06.371Z,1.00
2022-10-30T00:41:37.172Z,1.00
2022-10-30T00:44:37.552Z,1.00
2022-10-30T00:47:15.837Z,1.00
2022-10-30T00:49:55.010Z,1.00
2022-10-30T00:52:27.061Z,1.00
2022-10-30T00:55:02.555Z,1.00
2022-10-30T00:57:33.179Z,1.00
2022-10-30T01:00:04.996Z,1.00
2022-10-30T01:02:38.155Z,1.00
2022-10-30T01:07:40.336Z,1.00
2022-10-30T01:10:14.285Z,1.00
2022-10-30T01:12:50.057Z,1.00
2022-10-30T01:15:22.496Z,1.00
2022-10-30T01:18:28.948Z,1.00
2022-10-30T01:21:20.360Z,1.00
2022-10-30T01:24:10.380Z,1.00
2022-10-30T01:26:48.755Z,1.00
2022-10-30T01:29:40.475Z,1.00
2022-10-30T01:32:31.448Z,1.00
2022-10-30T01:35:13.497Z,1.00
2022-10-30T01:37:53.413Z,1.00
2022-10-30T01:40:26.898Z,1.00
2022-10-30T01:42:59.760Z,1.00
2022-10-30T01:45:55.623Z,1.00
2022-10-30T01:48:51.098Z,1.00
2022-10-30T01:51:37.283Z,1.00
2022-10-30T01:54:17.974Z,1.00
2022-10-30T01:57:02.280Z,1.00
2022-10-30T01:59:38.907Z,1.00
2022-10-30T02:02:10.693Z,1.00
2022-10-30T02:04:42.369Z,1.00
2022-10-30T02:07:18.828Z,1.00
2022-10-30T02:09:54.700Z,1.00
2022-10-30T02:12:28.143Z,1.00
2022-10-30T02:15:02.005Z,1.00
2022-10-30T02:17:32.502Z,1.00
2022-10-30T02:20:03.196Z,1.00
2022-10-30T02:22:36.311Z,1.00
2022-10-30T02:25:07.090Z,1.00
2022-10-30T02:27:37.728Z,1.00
2022-10-30T02:30:09.777Z,1.00
2022-10-30T02:32:40.028Z,1.00
2022-10-30T02:35:10.751Z,1.00
2022-10-30T02:37:43.295Z,1.00
2022-10-30T02:40:16.010Z,1.00
2022-10-30T02:42:46.017Z,1.00
2022-10-30T02:45:17.356Z,1.00
2022-10-30T02:47:47.520Z,1.00
2022-10-30T02:50:18.597Z,1.00
2022-10-30T02:52:51.259Z,1.00
2022-10-30T02:55:21.943Z,1.00
2022-10-30T02:57:52.098Z,1.00
2022-10-30T03:00:22.989Z,1.00
2022-10-30T03:02:58.049Z,1.00
2022-10-30T03:05:29.272Z,1.00
2022-10-30T03:08:03.280Z,1.00
2022-10-30T03:10:33.912Z,1.00
2022-10-30T03:13:03.896Z,1.00
2022-10-30T03:15:35.649Z,1.00
2022-10-30T03:18:05.596Z,1.00
2022-10-30T03:20:42.107Z,1.00
2022-10-30T03:23:14.668Z,1.00
2022-10-30T03:25:45.065Z,1.00
2022-10-30T03:28:14.976Z,1.00
2022-10-30T03:30:45.267Z,1.00
2022-10-30T03:33:15.286Z,1.00
2022-10-30T03:35:47.091Z,1.00
2022-10-30T03:38:19.684Z,1.00
2022-10-30T03:40:50.305Z,1.00
2022-10-30T03:43:20.332Z,1.00
2022-10-30T03:45:52.366Z,1.00
2022-10-30T03:48:25.043Z,1.00
2022-10-30T03:50:56.551Z,1.00
2022-10-30T03:53:29.816Z,1.00
2022-10-30T03:56:05.423Z,1.00
2022-10-30T03:58:55.722Z,1.00
2022-10-30T04:01:28.141Z,1.00
2022-10-30T04:04:00.284Z,1.00
2022-10-30T04:06:30.744Z,1.00
2022-10-30T04:09:03.339Z,1.00
2022-10-30T04:11:39.996Z,1.00
2022-10-30T04:14:10.241Z,1.00
2022-10-30T04:16:41.113Z,1.00
2022-10-30T04:19:11.251Z,1.00
2022-10-30T04:21:43.444Z,1.00
2022-10-30T04:24:18.799Z,1.00
2022-10-30T04:26:52.413Z,1.00
2022-10-30T04:29:22.430Z,1.00
2022-10-30T04:31:53.019Z,1.00
2022-10-30T04:34:23.234Z,1.00
2022-10-30T04:36:54.302Z,1.00
2022-10-30T04:39:26.953Z,1.00
2022-10-30T04:42:04.088Z,3.30
2022-10-30T04:44:36.868Z,11.80
2022-10-30T04:47:07.829Z,22.40
2022-10-30T04:49:37.747Z,30.70
2022-10-30T04:52:08.183Z,36.00
2022-10-30T04:54:40.735Z,45.80
2022-10-30T04:57:11.813Z,55.50
2022-10-30T04:59:44.065Z,61.50
2022-10-30T05:02:14.762Z,53.20
2022-10-30T05:04:45.228Z,54.80
2022-10-30T05:07:15.596Z,56.70
2022-10-30T05:09:48.943Z,76.30
2022-10-30T05:12:19.618Z,88.00
2022-10-30T05:14:56.337Z,78.30
2022-10-30T05:17:26.538Z,75.80
2022-10-30T05:19:57.382Z,85.70
2022-10-30T05:22:27.272Z,99.90
2022-10-30T05:25:00.636Z,99.90
2022-10-30T05:27:30.509Z,99.90
2022-10-30T05:30:00.839Z,99.90
2022-10-30T05:32:30.884Z,99.90
2022-10-30T05:35:01.918Z,99.90
2022-10-30T05:37:32.146Z,99.90
2022-10-30T05:40:05.032Z,99.90
2022-10-30T05:42:35.412Z,99.90
2022-10-30T05:45:09.130Z,99.90
2022-10-30T05:47:39.427Z,99.90
2022-10-30T05:50:11.932Z,99.90
2022-10-30T05:52:49.467Z,99.90
2022-10-30T05:55:22.924Z,99.90
2022-10-30T05:58:09.734Z,99.90
2022-10-30T06:00:44.736Z,99.90
2022-10-30T06:03:19.229Z,99.90
2022-10-30T06:05:50.602Z,99.90
2022-10-30T06:08:21.486Z,99.90
2022-10-30T06:10:57.840Z,99.90
2022-10-30T06:13:37.625Z,99.90
2022-10-30T06:16:13.242Z,99.90
2022-10-30T06:19:03.378Z,99.90
2022-10-30T06:21:35.495Z,99.90
2022-10-30T06:24:17.468Z,99.90
2022-10-30T06:27:09.829Z,99.90
2022-10-30T06:29:39.769Z,99.90
2022-10-30T06:32:09.912Z,99.90
2022-10-30T06:34:40.190Z,99.90
2022-10-30T06:37:11.154Z,99.90
2022-10-30T06:39:42.011Z,99.90
2022-10-30T06:42:55.373Z,99.90
2022-10-30T06:45:32.390Z,99.90
2022-10-30T06:48:03.325Z,99.90
2022-10-30T06:50:41.630Z,99.90
2022-10-30T06:53:11.682Z,99.90
2022-10-30T06:55:42.891Z,99.90
2022-10-30T06:58:53.560Z,99.90
2022-10-30T07:01:37.492Z,99.90
2022-10-30T07:04:22.120Z,99.90
2022-10-30T07:06:52.751Z,99.90
2022-10-30T07:09:24.522Z,99.90
2022-10-30T07:11:56.945Z,99.90
2022-10-30T07:14:32.816Z,99.90
2022-10-30T07:17:14.176Z,99.90
2022-10-30T07:19:47.455Z,99.90
2022-10-30T07:22:20.210Z,99.90
2022-10-30T07:24:54.650Z,99.90
2022-10-30T07:27:45.691Z,99.90
2022-10-30T07:30:37.306Z,99.90
2022-10-30T07:33:22.226Z,99.90
2022-10-30T07:36:03.626Z,99.90
2022-10-30T07:38:54.550Z,99.90
2022-10-30T07:41:49.927Z,99.90
2022-10-30T07:44:58.543Z,99.90
2022-10-30T07:47:42.611Z,99.90
2022-10-30T07:50:27.941Z,99.90
2022-10-30T07:52:58.678Z,99.90
2022-10-30T07:55:31.604Z,99.90
2022-10-30T07:58:21.869Z,99.90
2022-10-30T08:01:18.642Z,99.90
2022-10-30T08:03:51.316Z,99.90
2022-10-30T08:06:30.518Z,99.90
2022-10-30T08:09:00.661Z,99.90
2022-10-30T08:11:31.824Z,99.90
2022-10-30T08:14:05.542Z,99.90
2022-10-30T08:16:37.245Z,99.90
2022-10-30T08:19:09.875Z,99.90
2022-10-30T08:21:40.233Z,99.90
2022-10-30T08:24:14.677Z,99.90
2022-10-30T08:26:49.264Z,99.90
2022-10-30T08:29:24.675Z,99.90
2022-10-30T08:31:56.376Z,99.90
2022-10-30T08:34:34.660Z,99.90
2022-10-30T08:37:13.358Z,99.90
2022-10-30T08:39:49.004Z,99.90
2022-10-30T08:42:38.766Z,99.90
2022-10-30T08:45:13.957Z,99.90
2022-10-30T08:48:02.322Z,99.90
2022-10-30T08:50:37.467Z,99.90
2022-10-30T08:53:10.660Z,91.70
2022-10-30T08:55:42.002Z,90.50
2022-10-30T08:58:22.546Z,90.70
2022-10-30T09:00:58.631Z,81.70
2022-10-30T09:03:54.981Z,77.80
2022-10-30T09:07:10.396Z,59.70
2022-10-30T09:10:12.025Z,76.40
2022-10-30T09:12:49.100Z,63.90
2022-10-30T09:15:19.968Z,69.60
2022-10-30T09:18:02.017Z,51.10
2022-10-30T09:20:37.221Z,53.20
2022-10-30T09:23:09.880Z,52.30
2022-10-30T09:25:40.778Z,47.00
2022-10-30T09:28:36.769Z,40.00
2022-10-30T09:31:50.115Z,57.00
2022-10-30T09:34:23.085Z,55.40
2022-10-30T09:37:07.892Z,41.00
2022-10-30T09:39:43.291Z,37.20
2022-10-30T09:42:43.259Z,35.20
2022-10-30T09:45:47.697Z,32.50
2022-10-30T09:48:41.499Z,11.60
2022-10-30T09:51:39.458Z,11.70
2022-10-30T09:54:35.610Z,2.00
2022-10-30T09:57:26.705Z,5.60
2022-10-30T10:00:10.643Z,1.00
2022-10-30T10:02:59.616Z,1.00
2022-10-30T10:05:45.899Z,1.00
2022-10-30T10:08:40.768Z,1.00
2022-10-30T10:11:35.728Z,1.00
2022-10-30T10:14:12.625Z,1.00
2022-10-30T10:16:44.801Z,1.00
2022-10-30T10:19:23.431Z,1.00
2022-10-30T10:21:59.222Z,1.00
2022-10-30T10:24:33.151Z,1.00
2022-10-30T10:27:13.818Z,1.00
2022-10-30T10:30:01.688Z,1.00
2022-10-30T10:32:52.908Z,1.00
2022-10-30T10:35:52.196Z,1.00
2022-10-30T10:38:38.004Z,1.00
2022-10-30T10:41:19.681Z,1.00
2022-10-30T10:44:18.180Z,1.00
2022-10-30T10:47:08.025Z,1.00
2022-10-30T10:49:56.738Z,1.00
2022-10-30T10:52:41.088Z,1.00
2022-10-30T10:55:21.769Z,1.00
2022-10-30T10:57:52.636Z,1.00
2022-10-30T11:00:26.506Z,1.00
2022-10-30T11:03:08.500Z,1.00
2022-10-30T11:05:45.449Z,1.00
2022-10-30T11:08:22.121Z,1.00
2022-10-30T11:11:01.209Z,1.00
2022-10-30T11:13:33.525Z,1.00
2022-10-30T11:16:14.555Z,1.00
2022-10-30T11:18:49.946Z,1.00
2022-10-30T11:21:32.593Z,1.00
2022-10-30T11:24:06.453Z,1.00
2022-10-30T11:26:38.082Z,1.00
2022-10-30T11:32:47.737Z,1.00
2022-10-30T11:35:22.154Z,1.00
2022-10-30T11:37:53.827Z,1.00
2022-10-30T11:40:29.566Z,1.00
2022-10-30T11:43:02.869Z,1.00
2022-10-30T11:45:36.428Z,1.00
2022-10-30T11:48:14.978Z,1.00
2022-10-30T11:50:53.794Z,1.00
2022-10-30T11:53:30.747Z,1.00
2022-10-30T11:56:01.890Z,1.00
2022-10-30T11:58:35.789Z,1.00
2022-10-30T12:01:09.450Z,1.00
2022-10-30T12:03:48.654Z,1.00
2022-10-30T12:06:29.554Z,1.00
2022-10-30T12:09:04.451Z,1.00
2022-10-30T12:11:47.696Z,1.00
2022-10-30T12:14:22.602Z,1.00
2022-10-30T12:17:00.641Z,1.00
2022-10-30T12:19:33.397Z,1.00
2022-10-30T12:22:09.874Z,1.00
2022-10-30T12:24:48.984Z,1.00
2022-10-30T12:27:22.577Z,1.00
2022-10-30T12:30:08.355Z,1.00
2022-10-30T12:32:49.590Z,1.00
2022-10-30T12:35:30.259Z,1.00
2022-10-30T12:38:05.134Z,1.00
2022-10-30T12:40:44.682Z,1.00
2022-10-30T12:43:20.343Z,1.00
2022-10-30T12:46:24.201Z,1.00
2022-10-30T12:49:17.005Z,1.00
2022-10-30T12:51:54.322Z,1.00
2022-10-30T12:54:35.278Z,1.00
2022-10-30T12:57:12.437Z,1.00
2022-10-30T12:59:54.806Z,1.00
2022-10-30T13:02:38.784Z,1.00
2022-10-30T13:05:21.276Z,1.00
2022-10-30T13:08:05.298Z,1.00
2022-10-30T13:10:44.785Z,1.00
2022-10-30T13:13:19.501Z,1.00
2022-10-30T13:15:57.972Z,1.00
2022-10-30T13:18:31.500Z,1.00
2022-10-30T13:21:25.159Z,1.00
2022-10-30T13:23:58.919Z,1.00
2022-10-30T13:26:39.170Z,1.00
2022-10-30T13:29:18.764Z,1.00
2022-10-30T13:32:00.582Z,1.00
2022-10-30T13:34:45.282Z,1.00
2022-10-30T13:37:24.054Z,1.00
2022-10-30T13:40:19.309Z,1.00
2022-10-30T13:43:08.117Z,1.00
2022-10-30T13:46:05.920Z,1.00
2022-10-30T13:48:59.406Z,1.00
2022-10-30T13:51:44.500Z,1.00
2022-10-30T13:54:22.277Z,1.00
2022-10-30T13:56:55.458Z,1.00
2022-10-30T13:59:51.008Z,1.00
2022-10-30T14:02:34.577Z,1.00
2022-10-30T14:05:15.508Z,1.00
2022-10-30T14:07:53.794Z,1.00
2022-10-30T14:10:34.913Z,1.00
2022-10-30T14:13:18.261Z,1.00
2022-10-30T14:15:51.613Z,1.00
2022-10-30T14:18:31.073Z,1.00
2022-10-30T14:21:22.720Z,1.00
2022-10-30T14:24:05.985Z,1.00
2022-10-30T14:26:36.611Z,1.00
2022-10-30T14:29:53.333Z,1.00
2022-10-30T14:32:45.247Z,1.00
2022-10-30T14:35:41.056Z,1.00
2022-10-30T14:38:29.570Z,1.00
2022-10-30T14:41:28.412Z,1.00
2022-10-30T14:44:31.951Z,1.00
2022-10-30T14:47:15.817Z,1.00
2022-10-30T14:49:50.733Z,1.00
2022-10-30T14:52:31.593Z,1.00
2022-10-30T14:55:18.847Z,1.00
2022-10-30T14:57:54.206Z,1.00
2022-10-30T15:00:46.283Z,1.00
2022-10-30T15:03:39.337Z,1.00
2022-10-30T15:06:25.047Z,1.00
2022-10-30T15:09:06.449Z,1.00
2022-10-30T15:12:12.526Z,1.00
2022-10-30T15:14:53.993Z,1.00
2022-10-30T15:17:30.585Z,1.00
2022-10-30T15:20:03.169Z,1.00
2022-10-30T15:22:36.919Z,1.00
2022-10-30T15:25:09.163Z,1.00
2022-10-30T15:27:46.068Z,1.00
2022-10-30T15:30:20.534Z,1.00
2022-10-30T15:32:51.095Z,1.00
2022-10-30T15:35:23.251Z,1.00
2022-10-30T15:38:04.084Z,1.00
2022-10-30T15:40:37.017Z,1.00
2022-10-30T15:43:09.917Z,1.00
2022-10-30T15:45:43.194Z,1.00
2022-10-30T15:48:24.733Z,1.00
2022-10-30T15:51:03.136Z,1.00
2022-10-30T15:53:43.025Z,1.00
2022-10-30T15:56:20.269Z,1.00
2022-10-30T15:58:54.482Z,1.00
2022-10-30T16:01:29.944Z,1.00
2022-10-30T16:04:00.070Z,1.00
2022-10-30T16:06:31.854Z,1.00
2022-10-30T16:09:07.225Z,1.00
2022-10-30T16:11:39.659Z,1.00
2022-10-30T16:14:13.740Z,1.00
2022-10-30T16:16:46.959Z,1.00
2022-10-30T16:19:28.040Z,1.00
2022-10-30T16:22:01.870Z,1.00
2022-10-30T16:24:37.716Z,1.00
2022-10-30T16:27:09.783Z,1.00
2022-10-30T16:29:40.562Z,1.00
2022-10-30T16:32:14.932Z,1.00
2022-10-30T16:34:47.431Z,1.00
2022-10-30T16:37:21.951Z,1.00
2022-10-30T16:39:56.339Z,1.00
2022-10-30T16:42:28.502Z,1.00
2022-10-30T16:45:44.149Z,1.00
2022-10-30T16:48:20.831Z,1.00
2022-10-30T16:50:52.363Z,1.00
2022-10-30T16:53:25.978Z,1.00
2022-10-30T16:56:00.820Z,1.00
2022-10-30T16:58:33.235Z,1.00
2022-10-30T17:01:09.815Z,1.00
2022-10-30T17:03:42.577Z,1.00
2022-10-30T17:06:29.980Z,1.00
2022-10-30T17:09:02.585Z,1.00
2022-10-30T17:11:44.190Z,1.00
2022-10-30T17:14:22.174Z,1.00
2022-10-30T17:16:57.886Z,1.00
2022-10-30T17:19:50.206Z,1.00
2022-10-30T17:22:23.660Z,1.00
2022-10-30T17:24:53.791Z,1.00
2022-10-30T17:27:47.145Z,1.00
2022-10-30T17:30:38.280Z,1.00
2022-10-30T17:33:35.249Z,1.00
2022-10-30T17:36:07.373Z,1.00
2022-10-30T17:38:37.397Z,1.00
2022-10-30T17:41:10.085Z,1.00
2022-10-30T17:44:13.260Z,1.00
2022-10-30T17:46:44.216Z,1.00
2022-10-30T17:49:26.539Z,1.00
2022-10-30T17:51:57.572Z,1.00
2022-10-30T17:54:27.875Z,1.00
2022-10-30T17:56:58.373Z,1.00
2022-10-30T17:59:31.111Z,1.00
2022-10-30T18:02:01.533Z,1.00
2022-10-30T18:04:31.752Z,1.00
2022-10-30T18:07:01.729Z,1.00
2022-10-30T18:09:31.685Z,1.00
2022-10-30T18:12:02.365Z,1.00
2022-10-30T18:14:35.263Z,1.00
2022-10-30T18:17:05.934Z,1.00
2022-10-30T18:19:36.052Z,1.00
2022-10-30T18:22:06.544Z,1.00
2022-10-30T18:24:36.785Z,1.00
2022-10-30T18:27:07.489Z,1.00
2022-10-30T18:29:40.154Z,1.00
2022-10-30T18:32:13.248Z,1.00
2022-10-30T18:34:43.282Z,1.00
2022-10-30T18:37:13.782Z,1.00
2022-10-30T18:39:43.968Z,1.00
2022-10-30T18:42:14.669Z,1.00
2022-10-30T18:44:47.457Z,1.00
2022-10-30T18:47:18.345Z,1.00
2022-10-30T18:49:48.426Z,1.00
2022-10-30T18:52:18.682Z,1.00
2022-10-30T18:54:48.831Z,1.00
2022-10-30T18:57:19.508Z,1.00
2022-10-30T18:59:52.308Z,1.00
2022-10-30T19:02:26.422Z,1.00
2022-10-30T19:04:56.665Z,1.00
2022-10-30T19:07:27.408Z,1.00
2022-10-30T19:09:59.589Z,1.00
2022-10-30T19:12:30.101Z,1.00
2022-10-30T19:15:03.359Z,1.00
2022-10-30T19:17:33.543Z,1.00
2022-10-30T19:20:03.724Z,1.00
2022-10-30T19:22:34.473Z,1.00
2022-10-30T19:25:05.078Z,1.00
2022-10-30T19:27:36.200Z,1.00
2022-10-30T19:30:10.250Z,1.00
2022-10-30T19:32:40.695Z,1.00
2022-10-30T19:35:11.940Z,1.00
2022-10-30T19:37:43.442Z,1.00
2022-10-30T19:40:21.004Z,1.00
2022-10-30T19:42:51.708Z,1.00
2022-10-30T19:45:26.642Z,1.00
2022-10-30T19:47:58.596Z,1.00
2022-10-30T19:50:31.177Z,1.00
2022-10-30T19:53:03.305Z,1.00
2022-10-30T19:55:34.936Z,1.00
2022-10-30T19:58:07.342Z,1.00
2022-10-30T20:00:43.580Z,1.00
2022-10-30T20:03:15.914Z,1.00
2022-10-30T20:05:49.576Z,1.00
2022-10-30T20:08:22.629Z,1.00
2022-10-30T20:10:55.133Z,1.00
2022-10-30T20:13:26.286Z,1.00
2022-10-30T20:16:03.694Z,1.00
2022-10-30T20:18:36.939Z,1.00
2022-10-30T20:21:11.024Z,1.00
2022-10-30T20:23:44.143Z,1.00
2022-10-30T20:26:26.406Z,1.00
2022-10-30T20:28:57.284Z,1.00
2022-10-30T20:31:30.364Z,1.00
2022-10-30T20:34:06.698Z,1.00
2022-10-30T20:36:38.560Z,1.00
2022-10-30T20:39:08.996Z,1.00
2022-10-30T20:41:43.178Z,1.00
2022-10-30T20:44:15.334Z,1.00
2022-10-30T20:46:48.384Z,1.00
2022-10-30T20:49:18.667Z,1.00
2022-10-30T20:51:50.345Z,1.00
2022-10-30T20:54:21.071Z,1.00
2022-10-30T20:56:51.749Z,1.00
2022-10-30T20:59:22.003Z,1.00
2022-10-30T21:01:56.345Z,1.00
2022-10-30T21:04:26.469Z,1.00
2022-10-30T21:06:57.181Z,1.00
2022-10-30T21:09:27.380Z,1.00
2022-10-30T21:11:58.155Z,1.00
2022-10-30T21:14:28.353Z,1.00
2022-10-30T21:17:02.057Z,1.00
2022-10-30T21:19:32.594Z,1.00
2022-10-30T21:22:02.920Z,1.00
2022-10-30T21:24:33.028Z,1.00
2022-10-30T21:27:06.019Z,1.00
2022-10-30T21:29:36.296Z,1.00
2022-10-30T21:32:09.787Z,1.00
2022-10-30T21:34:39.831Z,1.00
2022-10-30T21:37:15.080Z,1.00
2022-10-30T21:39:45.254Z,1.00
2022-10-30T21:42:15.726Z,1.00
2022-10-30T21:44:45.899Z,1.00
2022-10-30T21:47:20.118Z,1.00
2022-10-30T21:49:51.331Z,1.00
2022-10-30T21:52:21.804Z,1.00
2022-10-30T21:54:58.591Z,1.00
2022-10-30T21:57:32.569Z,1.00
2022-10-30T22:00:05.721Z,1.00
2022-10-30T22:02:44.526Z,1.00
2022-10-30T22:05:14.608Z,1.00
2022-10-30T22:07:45.276Z,1.00
2022-10-30T22:10:15.461Z,1.00
2022-10-30T22:12:46.119Z,1.00
2022-10-30T22:15:16.141Z,1.00
2022-10-30T22:17:49.335Z,1.00
2022-10-30T22:20:23.756Z,1.00
2022-10-30T22:22:57.137Z,1.00
2022-10-30T22:25:27.627Z,1.00
2022-10-30T22:27:59.347Z,1.00
2022-10-30T22:30:30.634Z,1.00
2022-10-30T22:33:04.399Z,1.00
2022-10-30T22:35:34.324Z,6.00
2022-10-30T22:38:05.606Z,23.10
2022-10-30T22:40:37.467Z,40.00
2022-10-30T22:43:08.757Z,32.20
2022-10-30T22:45:39.019Z,14.30
2022-10-30T22:48:12.490Z,31.70
2022-10-30T22:50:42.576Z,1.00
2022-10-30T22:53:13.842Z,6.50
2022-10-30T22:55:44.101Z,18.60
2022-10-30T22:58:15.228Z,37.40
2022-10-30T23:00:45.738Z,30.80
2022-10-30T23:03:19.184Z,14.30
2022-10-30T23:05:51.985Z,41.90
2022-10-30T23:08:25.109Z,34.00
2022-10-30T23:10:56.170Z,70.20
2022-10-30T23:13:28.309Z,65.20
2022-10-30T23:16:03.252Z,75.10
2022-10-30T23:18:38.786Z,51.00
2022-10-30T23:21:13.399Z,40.20
2022-10-30T23:23:46.050Z,59.10
2022-10-30T23:26:19.748Z,45.30
2022-10-30T23:28:51.197Z,43.20
2022-10-30T23:31:27.587Z,67.60
2022-10-30T23:34:02.340Z,92.90
2022-10-30T23:36:33.607Z,98.10
2022-10-30T23:39:05.116Z,99.90
2022-10-30T23:41:37.179Z,98.00
2022-10-30T23:44:09.550Z,99.90
2022-10-30T23:46:40.939Z,99.90
2022-10-30T23:49:14.128Z,99.90
2022-10-30T23:51:45.554Z,99.90
2022-10-30T23:54:15.667Z,96.70
2022-10-30T23:56:48.761Z,99.90
2022-10-30T23:59:18.706Z,99.90
